Walnut, California
Current Conditions -  °F | °C
As of 5:53 PM on Wednesday 17 Dec 2014 (Local Time) from KCNO Reporting Station
Broken Clouds Broken Clouds  
Wind Chill: 13°   Ceiling: 7000
Heat Index: 13°   Visibility: 10mi
Dew Point:   Wind: 0mph
Humidity: 67%   Direction: NA
Pressure: 30.09"   Gusts: NA
Location:  34.03°N, 117.84°W
Report Text: KCNO 180153Z 00000KT 10SM BKN070 13/07 A3009 RMK AO2 SLP189 T01330072
Loading
Personal Weather Stations






























Interactive Weather Map New forecast layout! Learn more

10-Day Weather Forecast

Advertisements
Track Severe Weather on mobile